createdAt,value
2019-04-23T00:01:03.017Z,15.50
2019-04-23T00:03:19.896Z,15.40
2019-04-23T00:08:41.995Z,15.30
2019-04-23T00:11:25.900Z,15.30
2019-04-23T00:14:03.162Z,15.20
2019-04-23T00:16:30.248Z,15.20
2019-04-23T00:18:56.339Z,15.10
2019-04-23T00:21:46.003Z,15.10
2019-04-23T00:24:56.782Z,15.00
2019-04-23T00:27:24.050Z,15.00
2019-04-23T00:32:21.780Z,14.90
2019-04-23T00:34:55.722Z,14.80
2019-04-23T00:37:28.389Z,14.80
2019-04-23T00:39:53.243Z,14.70
2019-04-23T00:42:41.627Z,14.70
2019-04-23T00:44:57.443Z,14.60
2019-04-23T00:47:36.773Z,14.50
2019-04-23T00:50:07.735Z,14.50
2019-04-23T00:52:35.355Z,14.40
2019-04-23T00:55:15.928Z,14.40
2019-04-23T00:57:59.838Z,14.40
2019-04-23T01:00:52.472Z,14.40
2019-04-23T01:07:51.537Z,14.10
2019-04-23T01:10:40.725Z,14.10
2019-04-23T01:13:08.636Z,14.00
2019-04-23T01:15:52.341Z,14.00
2019-04-23T01:20:54.652Z,13.90
2019-04-23T01:23:54.829Z,13.80
2019-04-23T01:26:42.141Z,13.80
2019-04-23T01:29:20.190Z,13.80
2019-04-23T01:31:51.996Z,13.70
2019-04-23T01:34:31.903Z,13.70
2019-04-23T01:36:54.180Z,13.60
2019-04-23T01:39:27.819Z,13.50
2019-04-23T01:42:14.519Z,13.50
2019-04-23T01:44:42.477Z,13.40
2019-04-23T01:47:12.440Z,13.40
2019-04-23T01:49:44.969Z,13.30
2019-04-23T01:52:14.516Z,13.30
2019-04-23T01:54:45.540Z,13.30
2019-04-23T01:57:22.890Z,13.20
2019-04-23T02:00:17.338Z,13.20
2019-04-23T02:02:45.720Z,13.10
2019-04-23T02:05:27.316Z,13.10
2019-04-23T02:08:06.058Z,13.10
2019-04-23T02:10:58.798Z,13.00
2019-04-23T02:16:42.613Z,12.90
2019-04-23T02:19:23.712Z,12.90
2019-04-23T02:22:09.817Z,12.80
2019-04-23T02:27:24.904Z,12.70
2019-04-23T02:30:05.964Z,12.70
2019-04-23T02:32:42.370Z,12.70
2019-04-23T02:35:32.882Z,12.60
2019-04-23T02:41:34.678Z,12.50
2019-04-23T02:44:13.166Z,12.50
2019-04-23T02:46:31.910Z,12.50
2019-04-23T02:51:56.255Z,12.40
2019-04-23T02:54:37.580Z,12.40
2019-04-23T03:00:09.935Z,12.30
2019-04-23T03:02:37.037Z,12.30
2019-04-23T03:04:57.734Z,12.30
2019-04-23T03:07:41.133Z,12.20
2019-04-23T03:10:08.293Z,12.20
2019-04-23T03:13:09.217Z,12.20
2019-04-23T03:15:21.419Z,12.20
2019-04-23T03:18:35.044Z,12.10
2019-04-23T03:21:18.450Z,12.10
2019-04-23T03:23:47.137Z,12.00
2019-04-23T03:26:32.680Z,12.00
2019-04-23T03:28:55.751Z,12.00
2019-04-23T03:34:52.164Z,11.90
2019-04-23T03:37:00.077Z,11.80
2019-04-23T03:38:54.346Z,11.80
2019-04-23T03:49:01.232Z,11.70
2019-04-23T03:54:28.417Z,11.70
2019-04-23T03:56:52.645Z,11.60
2019-04-23T03:59:22.742Z,11.60
2019-04-23T04:02:20.865Z,11.60
2019-04-23T04:09:49.639Z,11.50
2019-04-23T04:12:29.537Z,11.50
2019-04-23T04:14:56.692Z,11.40
2019-04-23T04:17:19.723Z,11.40
2019-04-23T04:20:02.382Z,11.40
2019-04-23T04:22:44.037Z,11.40
2019-04-23T04:25:10.092Z,11.30
2019-04-23T04:27:47.875Z,11.30
2019-04-23T04:32:47.031Z,11.30
2019-04-23T04:43:06.761Z,11.20
2019-04-23T04:48:37.920Z,11.30
2019-04-23T04:51:08.452Z,11.30
2019-04-23T05:03:29.261Z,11.40
2019-04-23T05:08:52.924Z,11.40
2019-04-23T05:16:40.443Z,11.50
2019-04-23T05:21:46.766Z,11.70
2019-04-23T05:24:11.529Z,11.70
2019-04-23T05:26:57.965Z,11.70
2019-04-23T05:29:11.197Z,11.70
2019-04-23T05:31:51.749Z,11.80
2019-04-23T05:34:17.535Z,11.90
2019-04-23T05:36:55.761Z,11.90
2019-04-23T05:39:30.657Z,11.90
2019-04-23T05:42:04.209Z,12.00
2019-04-23T05:47:16.020Z,12.00
2019-04-23T05:49:39.485Z,12.10
2019-04-23T05:52:29.871Z,12.20
2019-04-23T05:54:52.446Z,12.20
2019-04-23T05:57:14.345Z,12.20
2019-04-23T05:59:54.743Z,12.20
2019-04-23T06:02:26.527Z,12.30
2019-04-23T06:05:02.134Z,12.30
2019-04-23T06:12:31.937Z,12.50
2019-04-23T06:15:05.352Z,12.50
2019-04-23T06:17:56.159Z,12.50
2019-04-23T06:20:18.204Z,12.50
2019-04-23T06:22:54.043Z,12.50
2019-04-23T06:25:40.796Z,12.50
2019-04-23T06:27:56.006Z,12.60
2019-04-23T06:30:49.016Z,12.60
2019-04-23T06:33:11.189Z,12.70
2019-04-23T06:35:47.063Z,12.70
2019-04-23T06:38:39.162Z,12.80
2019-04-23T06:40:51.121Z,12.80
2019-04-23T06:43:30.301Z,12.90
2019-04-23T06:45:49.223Z,13.00
2019-04-23T06:50:56.179Z,12.90
2019-04-23T06:53:29.187Z,13.00
2019-04-23T06:56:35.104Z,13.00
2019-04-23T06:59:02.451Z,13.00
2019-04-23T07:02:04.272Z,13.20
2019-04-23T07:09:57.953Z,13.40
2019-04-23T07:12:38.597Z,13.60
2019-04-23T07:15:33.454Z,13.60
2019-04-23T07:18:03.859Z,13.70
2019-04-23T07:20:40.358Z,13.80
2019-04-23T07:23:17.001Z,13.90
2019-04-23T07:25:42.488Z,13.90
2019-04-23T07:28:47.540Z,14.00
2019-04-23T07:31:29.899Z,14.10
2019-04-23T07:42:09.159Z,14.30
2019-04-23T07:44:56.590Z,14.40
2019-04-23T07:48:00.238Z,14.50
2019-04-23T07:50:38.186Z,14.50
2019-04-23T07:52:59.051Z,14.50
2019-04-23T07:57:58.313Z,14.90
2019-04-23T08:00:36.659Z,14.90
2019-04-23T08:03:08.710Z,15.10
2019-04-23T08:08:00.230Z,15.30
2019-04-23T08:10:35.811Z,15.30
2019-04-23T08:15:42.958Z,15.60
2019-04-23T08:20:55.604Z,15.70
2019-04-23T08:23:49.120Z,15.70
2019-04-23T08:26:56.750Z,15.70
2019-04-23T08:29:24.872Z,15.80
2019-04-23T08:32:11.085Z,16.00
2019-04-23T08:34:57.797Z,16.10
2019-04-23T08:37:15.363Z,16.10
2019-04-23T08:40:09.750Z,16.10
2019-04-23T08:42:46.737Z,16.20
2019-04-23T08:45:22.627Z,16.40
2019-04-23T08:48:32.831Z,16.50
2019-04-23T08:50:50.228Z,16.70
2019-04-23T08:53:31.736Z,16.90
2019-04-23T09:01:03.826Z,17.20
2019-04-23T09:06:05.583Z,17.30
2019-04-23T09:08:37.385Z,17.10
2019-04-23T09:11:30.779Z,17.10
2019-04-23T09:14:00.911Z,17.10
2019-04-23T09:16:31.318Z,17.10
2019-04-23T09:19:02.621Z,17.20
2019-04-23T09:21:27.504Z,17.40
2019-04-23T09:24:03.844Z,17.60
2019-04-23T09:26:51.761Z,17.80
2019-04-23T09:29:19.096Z,18.10
2019-04-23T09:37:42.253Z,18.70
2019-04-23T09:40:51.150Z,18.60
2019-04-23T09:46:17.554Z,18.50
2019-04-23T09:49:00.095Z,18.40
2019-04-23T09:51:25.537Z,18.30
2019-04-23T09:53:57.741Z,18.20
2019-04-23T09:56:37.592Z,18.10
2019-04-23T09:59:28.635Z,18.10
2019-04-23T10:01:48.329Z,18.10
2019-04-23T10:04:22.161Z,18.00
2019-04-23T10:06:55.309Z,18.00
2019-04-23T10:09:14.560Z,18.10
2019-04-23T10:11:47.219Z,18.30
2019-04-23T10:14:16.795Z,18.50
2019-04-23T10:16:49.335Z,18.70
2019-04-23T10:19:19.744Z,18.80
2019-04-23T10:21:49.335Z,18.80
2019-04-23T10:24:19.157Z,18.80
2019-04-23T10:26:50.426Z,18.90
2019-04-23T10:29:25.598Z,18.90
2019-04-23T10:32:07.465Z,18.80
2019-04-23T10:34:57.793Z,18.90
2019-04-23T10:37:32.053Z,18.90
2019-04-23T10:39:56.165Z,19.00
2019-04-23T10:42:22.735Z,19.20
2019-04-23T10:45:30.294Z,19.30
2019-04-23T10:48:35.370Z,19.30
2019-04-23T10:51:17.127Z,19.40
2019-04-23T10:53:56.274Z,19.50
2019-04-23T10:56:36.212Z,19.60
2019-04-23T10:59:04.862Z,19.70
2019-04-23T11:01:39.075Z,19.60
2019-04-23T11:04:21.731Z,19.60
2019-04-23T11:06:50.343Z,19.60
2019-04-23T11:09:52.880Z,19.80
2019-04-23T11:12:14.543Z,20.00
2019-04-23T11:14:49.958Z,20.10
2019-04-23T11:17:31.900Z,20.00
2019-04-23T11:20:10.817Z,20.00
2019-04-23T11:22:42.024Z,20.00
2019-04-23T11:25:15.443Z,20.10
2019-04-23T11:28:20.436Z,20.20
2019-04-23T11:30:31.434Z,20.30
2019-04-23T11:33:00.784Z,20.40
2019-04-23T11:35:40.024Z,20.40
2019-04-23T11:38:34.949Z,20.50
2019-04-23T11:40:37.154Z,20.50
2019-04-23T11:44:52.208Z,20.50
2019-04-23T11:46:08.562Z,20.60
2019-04-23T11:53:41.038Z,20.90
2019-04-23T11:56:18.936Z,20.90
2019-04-23T11:58:42.758Z,20.90
2019-04-23T12:04:28.801Z,20.90
2019-04-23T12:07:00.098Z,20.90
2019-04-23T12:09:53.412Z,20.80
2019-04-23T12:14:47.169Z,20.50
2019-04-23T12:17:46.742Z,20.60
2019-04-23T12:20:21.205Z,20.60
2019-04-23T12:25:27.594Z,20.70
2019-04-23T12:27:46.969Z,20.90
2019-04-23T12:30:39.612Z,20.90
2019-04-23T12:35:33.973Z,21.00
2019-04-23T12:38:16.462Z,21.10
2019-04-23T12:40:44.293Z,21.30
2019-04-23T12:45:46.933Z,21.50
2019-04-23T12:48:44.052Z,21.50
2019-04-23T12:53:34.238Z,21.30
2019-04-23T12:56:12.895Z,21.30
2019-04-23T12:58:33.817Z,21.40
2019-04-23T13:01:18.671Z,21.30
2019-04-23T13:03:46.006Z,21.20
2019-04-23T13:06:20.434Z,21.10
2019-04-23T13:09:02.799Z,21.20
2019-04-23T13:14:35.004Z,21.00
2019-04-23T13:17:11.610Z,20.90
2019-04-23T13:19:51.524Z,21.00
2019-04-23T13:22:23.754Z,21.00
2019-04-23T13:25:32.962Z,21.00
2019-04-23T13:28:08.391Z,21.10
2019-04-23T13:31:04.452Z,21.10
2019-04-23T13:38:57.201Z,21.10
2019-04-23T13:41:34.830Z,21.10
2019-04-23T13:44:55.861Z,21.10
2019-04-23T13:47:59.668Z,21.00
2019-04-23T13:51:19.819Z,21.10
2019-04-23T13:55:02.880Z,21.20
2019-04-23T14:00:44.928Z,21.20
2019-04-23T14:03:40.672Z,21.20
2019-04-23T14:09:20.083Z,21.30
2019-04-23T14:12:31.960Z,21.30
2019-04-23T14:15:24.183Z,21.40
2019-04-23T14:24:45.237Z,21.50
2019-04-23T14:27:24.506Z,21.50
2019-04-23T14:33:37.403Z,21.70
2019-04-23T14:36:52.746Z,21.60
2019-04-23T14:39:32.317Z,21.80
2019-04-23T14:42:44.524Z,21.80
2019-04-23T14:45:19.111Z,21.90
2019-04-23T14:48:02.813Z,21.80
2019-04-23T14:50:48.762Z,21.80
2019-04-23T14:56:20.176Z,21.80
2019-04-23T14:59:16.405Z,21.70
2019-04-23T15:01:55.127Z,21.70
2019-04-23T15:04:27.329Z,21.80
2019-04-23T15:08:18.786Z,22.00
2019-04-23T15:13:41.314Z,22.00
2019-04-23T15:16:20.497Z,21.90
2019-04-23T15:19:31.620Z,22.00
2019-04-23T15:22:20.397Z,22.10
2019-04-23T15:28:14.518Z,22.20
2019-04-23T15:34:13.817Z,22.20
2019-04-23T15:37:00.752Z,22.30
2019-04-23T15:45:19.407Z,22.30
2019-04-23T15:48:12.010Z,22.40
2019-04-23T15:57:42.056Z,22.30
2019-04-23T16:00:00.038Z,22.40
2019-04-23T16:02:06.222Z,22.40
2019-04-23T16:04:35.999Z,22.40
2019-04-23T16:07:08.012Z,22.50
2019-04-23T16:10:11.016Z,22.50
2019-04-23T16:12:35.970Z,22.50
2019-04-23T16:15:07.839Z,22.50
2019-04-23T16:18:01.486Z,22.40
2019-04-23T16:20:31.469Z,22.50
2019-04-23T16:23:05.705Z,22.50
2019-04-23T16:25:49.808Z,22.40
2019-04-23T16:31:34.573Z,22.50
2019-04-23T16:36:32.494Z,22.40
2019-04-23T16:39:06.215Z,22.30
2019-04-23T16:41:52.130Z,22.30
2019-04-23T16:44:24.215Z,22.20
2019-04-23T16:46:52.022Z,22.20
2019-04-23T16:51:45.540Z,22.20
2019-04-23T16:54:26.723Z,22.20
2019-04-23T16:59:24.223Z,22.10
2019-04-23T17:04:34.554Z,22.00
2019-04-23T17:07:03.710Z,21.90
2019-04-23T17:09:42.581Z,21.90
2019-04-23T17:12:13.725Z,21.80
2019-04-23T17:14:48.234Z,21.70
2019-04-23T17:17:11.705Z,21.60
2019-04-23T17:20:03.009Z,21.60
2019-04-23T17:22:32.590Z,21.60
2019-04-23T17:25:15.794Z,21.50
2019-04-23T17:27:48.925Z,21.50
2019-04-23T17:30:27.909Z,21.40
2019-04-23T17:33:13.877Z,21.30
2019-04-23T17:38:56.988Z,21.20
2019-04-23T17:41:43.998Z,21.20
2019-04-23T17:44:23.602Z,21.20
2019-04-23T17:47:08.735Z,21.10
2019-04-23T17:49:59.605Z,21.00
2019-04-23T17:55:54.873Z,20.90
2019-04-23T17:58:19.899Z,20.80
2019-04-23T18:03:23.789Z,20.80
2019-04-23T18:06:08.411Z,20.70
2019-04-23T18:08:41.482Z,20.70
2019-04-23T18:11:05.883Z,20.60
2019-04-23T18:13:27.726Z,20.50
2019-04-23T18:21:29.148Z,20.20
2019-04-23T18:24:16.500Z,20.20
2019-04-23T18:27:06.694Z,20.10
2019-04-23T18:30:00.765Z,20.00
2019-04-23T18:32:22.153Z,20.00
2019-04-23T18:37:29.819Z,19.80
2019-04-23T18:40:00.361Z,19.80
2019-04-23T18:45:03.482Z,19.60
2019-04-23T18:47:48.976Z,19.50
2019-04-23T18:50:19.631Z,19.50
2019-04-23T18:52:50.315Z,19.40
2019-04-23T18:55:14.591Z,19.30
2019-04-23T18:57:45.787Z,19.20
2019-04-23T19:00:17.242Z,19.20
2019-04-23T19:03:30.330Z,19.10
2019-04-23T19:06:31.963Z,19.10
2019-04-23T19:09:01.378Z,19.00
2019-04-23T19:14:30.799Z,18.90
2019-04-23T19:17:09.032Z,18.80
2019-04-23T19:19:28.600Z,18.70
2019-04-23T19:22:14.553Z,18.60
2019-04-23T19:25:01.964Z,18.60
2019-04-23T19:29:39.445Z,18.50
2019-04-23T19:32:06.221Z,18.50
2019-04-23T19:34:45.403Z,18.40
2019-04-23T19:37:02.412Z,18.40
2019-04-23T19:39:40.100Z,18.40
2019-04-23T19:42:21.089Z,18.30
2019-04-23T19:52:18.666Z,18.20
2019-04-23T19:54:55.036Z,18.10
2019-04-23T19:57:19.463Z,18.00
2019-04-23T19:59:51.064Z,18.00
2019-04-23T20:02:32.207Z,18.00
2019-04-23T20:05:05.579Z,18.00
2019-04-23T20:07:32.932Z,17.90
2019-04-23T20:09:51.602Z,17.90
2019-04-23T20:12:33.418Z,17.80
2019-04-23T20:14:56.536Z,17.80
2019-04-23T20:19:58.406Z,17.70
2019-04-23T20:22:41.840Z,17.60
2019-04-23T20:25:31.450Z,17.60
2019-04-23T20:32:15.345Z,17.50
2019-04-23T20:35:38.381Z,17.40
2019-04-23T20:38:59.400Z,17.30
2019-04-23T20:40:53.965Z,17.30
2019-04-23T20:43:14.751Z,17.30
2019-04-23T20:45:55.997Z,17.30
2019-04-23T20:48:25.270Z,17.30
2019-04-23T20:53:28.380Z,17.30
2019-04-23T20:58:47.549Z,17.20
2019-04-23T21:03:52.032Z,17.20
2019-04-23T21:06:28.288Z,17.20
2019-04-23T21:09:10.092Z,17.20
2019-04-23T21:11:24.173Z,17.10
2019-04-23T21:14:03.309Z,17.10
2019-04-23T21:16:32.157Z,17.10
2019-04-23T21:18:55.045Z,17.00
2019-04-23T21:21:33.564Z,17.00
2019-04-23T21:26:40.293Z,16.90
2019-04-23T21:29:00.566Z,16.90
2019-04-23T21:31:42.791Z,16.80
2019-04-23T21:34:26.911Z,16.80
2019-04-23T21:36:57.793Z,16.70
2019-04-23T21:39:53.920Z,16.70
2019-04-23T21:42:21.122Z,16.60
2019-04-23T21:47:17.154Z,16.60
2019-04-23T21:50:03.081Z,16.50
2019-04-23T21:52:28.514Z,16.50
2019-04-23T21:54:58.734Z,16.50
2019-04-23T21:57:41.193Z,16.40
2019-04-23T22:02:38.269Z,16.30
2019-04-23T22:05:09.315Z,16.20
2019-04-23T22:07:44.191Z,16.20
2019-04-23T22:12:48.085Z,16.10
2019-04-23T22:15:07.287Z,16.10
2019-04-23T22:17:44.795Z,16.10
2019-04-23T22:23:01.482Z,16.10
2019-04-23T22:25:18.069Z,16.10
2019-04-23T22:30:21.405Z,16.20
2019-04-23T22:35:24.282Z,16.10
2019-04-23T22:38:07.478Z,16.10
2019-04-23T22:40:31.398Z,16.10
2019-04-23T22:45:52.427Z,16.10
2019-04-23T22:48:04.249Z,16.10
2019-04-23T22:50:39.743Z,16.10
2019-04-23T22:53:08.004Z,16.00
2019-04-23T22:55:49.424Z,16.00
2019-04-23T22:58:16.031Z,16.00
2019-04-23T23:01:05.413Z,16.00
2019-04-23T23:03:33.355Z,16.00
2019-04-23T23:06:10.471Z,15.90
2019-04-23T23:08:52.313Z,15.90
2019-04-23T23:11:05.772Z,15.90
2019-04-23T23:13:52.230Z,15.80
2019-04-23T23:16:06.819Z,15.80
2019-04-23T23:18:43.938Z,15.80
2019-04-23T23:21:11.888Z,15.80
2019-04-23T23:31:19.855Z,15.80
2019-04-23T23:33:47.205Z,15.80
2019-04-23T23:36:20.145Z,15.80
2019-04-23T23:38:58.651Z,15.80
2019-04-23T23:44:20.798Z,15.80
2019-04-23T23:46:35.466Z,15.80
2019-04-23T23:49:08.494Z,15.80
2019-04-23T23:51:40.219Z,15.80
2019-04-23T23:54:10.317Z,15.70
2019-04-23T23:56:47.799Z,15.70
2019-04-23T23:59:12.862Z,15.80
